Time;durP1;ratioP1;P1;durP2;ratioP2;P2;SDS_P1;SDS_P2;PMS_P1;PMS_P2;Temp;Humidity;BMP_temperature;BMP_pressure;BME280_temperature;BME280_humidity;BME280_pressure;Samples;Min_cycle;Max_cycle;Signal;HPM_P1;HPM_P2
2023/04/29 00:01:19;;;;;;;;;;;11.60;66.70;;;;;;5030722;28;19921;-76
2023/04/29 00:03:44;;;;;;;;;;;11.60;66.70;;;;;;5015090;28;19925;-76
2023/04/29 00:06:10;;;;;;;;;;;11.60;66.80;;;;;;5013300;28;20493;-76
2023/04/29 00:08:36;;;;;;;;;;;11.50;66.70;;;;;;5034864;28;20411;-75
2023/04/29 00:11:01;;;;;;;;;;;11.50;66.80;;;;;;5013478;28;19931;-76
2023/04/29 00:13:26;;;;;;;;;;;11.40;66.80;;;;;;5010642;28;19925;-76
2023/04/29 00:15:52;;;;;;;;;;;11.40;66.80;;;;;;5005282;28;19992;-76
2023/04/29 00:18:17;;;;;;;;;;;11.40;66.90;;;;;;5008710;28;19921;-76
2023/04/29 00:20:43;;;;;;;;;;;11.40;66.90;;;;;;5004704;28;19928;-76
2023/04/29 00:23:08;;;;;;;;;;;11.30;66.90;;;;;;5012396;28;20549;-76
2023/04/29 00:25:34;;;;;;;;;;;11.30;66.90;;;;;;5015246;28;19927;-76
2023/04/29 00:28:00;;;;;;;;;;;11.30;67.00;;;;;;5015843;28;19921;-76
2023/04/29 00:30:29;;;;;;;;;;;11.30;67.00;;;;;;5012377;28;20031;-76
2023/04/29 00:32:55;;;;;;;;;;;11.20;67.00;;;;;;5027143;28;19925;-76
2023/04/29 00:35:20;;;;;;;;;;;11.20;67.10;;;;;;5013654;28;19925;-75
2023/04/29 00:37:46;;;;;;;;;;;11.20;67.10;;;;;;5010163;28;20538;-76
2023/04/29 00:40:13;;;;;;;;;;;11.10;67.00;;;;;;5014055;28;19925;-76
2023/04/29 00:42:39;;;;;;;;;;;11.10;67.10;;;;;;5010448;28;21436;-76
2023/04/29 00:45:05;;;;;;;;;;;11.10;67.10;;;;;;5011544;28;19975;-76
2023/04/29 00:47:30;;;;;;;;;;;11.10;67.10;;;;;;5013945;28;19929;-77
2023/04/29 00:49:56;;;;;;;;;;;11.00;67.10;;;;;;4999399;28;19971;-76
2023/04/29 00:52:21;;;;;;;;;;;11.00;67.20;;;;;;5027493;28;20555;-76
2023/04/29 00:54:47;;;;;;;;;;;11.00;67.20;;;;;;5011303;28;19925;-75
2023/04/29 00:57:13;;;;;;;;;;;10.90;67.20;;;;;;5015084;28;19925;-76
2023/04/29 00:59:39;;;;;;;;;;;10.90;67.30;;;;;;5025638;28;20197;-76
2023/04/29 01:02:05;;;;;;;;;;;10.90;67.20;;;;;;5001564;28;20298;-76
2023/04/29 01:04:30;;;;;;;;;;;10.90;67.30;;;;;;5012113;28;20461;-76
2023/04/29 01:07:11;;;;;;;;;;;10.80;67.30;;;;;;5011588;28;19933;-77
2023/04/29 01:09:39;;;;;;;;;;;10.80;67.30;;;;;;5011698;28;19929;-76
2023/04/29 01:12:05;;;;;;;;;;;10.80;67.30;;;;;;5020014;28;21649;-76
2023/04/29 01:14:31;;;;;;;;;;;10.70;67.30;;;;;;5023722;28;19939;-76
2023/04/29 01:16:58;;;;;;;;;;;10.70;67.40;;;;;;5017992;28;19928;-76
2023/04/29 01:19:40;;;;;;;;;;;10.70;67.40;;;;;;5016067;28;19920;-76
2023/04/29 01:22:05;;;;;;;;;;;10.70;67.50;;;;;;5014974;28;19947;-76
2023/04/29 01:24:31;;;;;;;;;;;10.60;67.50;;;;;;5018538;28;19952;-76
2023/04/29 01:26:58;;;;;;;;;;;10.60;67.50;;;;;;5015048;28;20609;-76
2023/04/29 01:29:28;;;;;;;;;;;10.60;67.50;;;;;;5016286;28;19921;-76
2023/04/29 01:31:57;;;;;;;;;;;10.50;67.50;;;;;;5015372;28;19924;-76
2023/04/29 01:34:26;;;;;;;;;;;10.40;67.50;;;;;;5014273;28;19928;-76
2023/04/29 01:36:56;;;;;;;;;;;10.50;67.60;;;;;;5015220;28;19928;-75
2023/04/29 01:39:30;;;;;;;;;;;10.40;67.60;;;;;;5001640;28;19921;-75
2023/04/29 01:41:59;;;;;;;;;;;10.40;67.60;;;;;;5030273;28;20674;-75
2023/04/29 01:44:26;;;;;;;;;;;10.30;67.60;;;;;;5031205;28;19943;-76
2023/04/29 01:46:52;;;;;;;;;;;10.30;67.60;;;;;;5015346;28;20674;-75
2023/04/29 01:49:27;;;;;;;;;;;10.30;67.70;;;;;;5003404;28;20055;-76
2023/04/29 01:51:53;;;;;;;;;;;10.30;67.70;;;;;;5011249;28;19921;-75
2023/04/29 01:54:18;;;;;;;;;;;10.30;67.80;;;;;;5030670;28;19928;-75
2023/04/29 01:56:43;;;;;;;;;;;10.30;67.80;;;;;;5014811;28;19921;-76
2023/04/29 01:59:09;;;;;;;;;;;10.20;67.80;;;;;;5032742;28;19986;-76
2023/04/29 02:01:35;;;;;;;;;;;10.20;67.70;;;;;;5015862;28;20810;-76
2023/04/29 02:04:00;;;;;;;;;;;10.20;67.80;;;;;;5015883;28;19979;-75
2023/04/29 02:06:26;;;;;;;;;;;10.20;67.80;;;;;;5033234;28;19966;-75
2023/04/29 02:08:52;;;;;;;;;;;10.20;67.80;;;;;;5014705;28;20299;-76
2023/04/29 02:11:17;;;;;;;;;;;10.20;67.80;;;;;;5033047;28;20379;-75
2023/04/29 02:13:43;;;;;;;;;;;10.20;67.90;;;;;;4995528;28;20024;-75
2023/04/29 02:16:09;;;;;;;;;;;10.10;67.90;;;;;;5011576;28;20502;-75
2023/04/29 02:18:34;;;;;;;;;;;10.10;67.80;;;;;;5029784;28;19980;-75
2023/04/29 02:21:00;;;;;;;;;;;10.10;67.80;;;;;;5009920;28;19971;-75
2023/04/29 02:23:26;;;;;;;;;;;10.10;67.90;;;;;;5011134;28;19936;-75
2023/04/29 02:25:51;;;;;;;;;;;10.10;67.90;;;;;;5011380;28;19933;-76
2023/04/29 02:28:17;;;;;;;;;;;10.10;68.00;;;;;;5011317;28;20363;-75
2023/04/29 02:30:42;;;;;;;;;;;10.10;68.00;;;;;;5011679;28;19928;-76
2023/04/29 02:33:08;;;;;;;;;;;10.10;68.00;;;;;;5009257;28;19978;-76
2023/04/29 02:35:33;;;;;;;;;;;10.10;68.00;;;;;;5015854;28;20473;-75
2023/04/29 02:37:59;;;;;;;;;;;10.00;68.00;;;;;;5011774;28;19926;-75
2023/04/29 02:40:27;;;;;;;;;;;10.00;67.90;;;;;;5003080;28;19921;-76
2023/04/29 02:42:53;;;;;;;;;;;10.00;68.10;;;;;;5009996;28;19928;-75
2023/04/29 02:45:18;;;;;;;;;;;10.00;68.00;;;;;;5014220;28;19921;-75
2023/04/29 02:47:44;;;;;;;;;;;10.00;68.00;;;;;;5007691;28;19920;-75
2023/04/29 02:50:09;;;;;;;;;;;10.00;68.00;;;;;;5006417;28;19937;-76
2023/04/29 02:52:35;;;;;;;;;;;10.00;68.00;;;;;;5009869;28;19928;-75
2023/04/29 02:55:01;;;;;;;;;;;10.00;68.00;;;;;;5011420;28;20368;-76
2023/04/29 02:57:28;;;;;;;;;;;10.10;68.00;;;;;;5026444;28;19926;-76
2023/04/29 02:59:53;;;;;;;;;;;10.00;68.00;;;;;;5011423;28;19925;-75
2023/04/29 03:02:19;;;;;;;;;;;10.00;68.00;;;;;;5012077;28;19921;-75
2023/04/29 03:04:45;;;;;;;;;;;10.00;68.00;;;;;;5025457;28;20331;-75
2023/04/29 03:07:10;;;;;;;;;;;10.00;68.00;;;;;;5009872;28;19925;-76
2023/04/29 03:09:36;;;;;;;;;;;10.00;68.00;;;;;;5013354;28;20564;-76
2023/04/29 03:12:01;;;;;;;;;;;10.00;68.00;;;;;;5011643;28;20387;-76
2023/04/29 03:14:27;;;;;;;;;;;10.00;68.00;;;;;;5007454;28;19964;-75
2023/04/29 03:16:55;;;;;;;;;;;10.00;68.00;;;;;;5011495;28;19921;-75
2023/04/29 03:19:20;;;;;;;;;;;10.00;68.00;;;;;;4996692;28;19921;-75
2023/04/29 03:21:46;;;;;;;;;;;10.00;68.00;;;;;;5025451;28;19928;-76
2023/04/29 03:24:12;;;;;;;;;;;10.00;68.00;;;;;;5012516;28;19926;-76
2023/04/29 03:26:37;;;;;;;;;;;10.00;68.00;;;;;;5008006;28;20012;-76
2023/04/29 03:29:03;;;;;;;;;;;10.10;68.10;;;;;;5010822;28;20501;-76
2023/04/29 03:31:28;;;;;;;;;;;10.00;68.00;;;;;;5024947;28;19921;-76
2023/04/29 03:33:54;;;;;;;;;;;10.00;68.00;;;;;;5008540;28;20389;-75
2023/04/29 03:36:19;;;;;;;;;;;10.10;68.10;;;;;;5012559;28;19921;-76
2023/04/29 03:38:45;;;;;;;;;;;10.10;68.00;;;;;;4997651;28;19922;-76
2023/04/29 03:41:10;;;;;;;;;;;10.10;68.10;;;;;;5008894;28;19920;-76
2023/04/29 03:43:35;;;;;;;;;;;10.10;68.00;;;;;;4989077;28;19918;-76
2023/04/29 03:46:01;;;;;;;;;;;10.10;68.00;;;;;;4991562;28;19991;-75
2023/04/29 03:48:26;;;;;;;;;;;10.10;68.00;;;;;;5013849;28;19940;-75
2023/04/29 03:50:52;;;;;;;;;;;10.10;68.00;;;;;;5010155;28;20462;-76
2023/04/29 03:53:17;;;;;;;;;;;10.10;68.00;;;;;;5000755;28;19928;-76
2023/04/29 03:55:43;;;;;;;;;;;10.10;68.00;;;;;;5012637;28;19921;-76
2023/04/29 03:58:09;;;;;;;;;;;10.10;68.00;;;;;;5014040;28;19925;-76
2023/04/29 04:00:34;;;;;;;;;;;10.10;68.00;;;;;;5014376;28;19921;-75
2023/04/29 04:03:00;;;;;;;;;;;10.10;68.00;;;;;;5004761;28;19926;-75
2023/04/29 04:05:25;;;;;;;;;;;10.10;68.00;;;;;;5012239;28;19984;-76
2023/04/29 04:07:51;;;;;;;;;;;10.10;68.00;;;;;;5006082;28;19924;-77
2023/04/29 04:10:17;;;;;;;;;;;10.20;68.00;;;;;;5000674;28;19956;-76
2023/04/29 04:12:42;;;;;;;;;;;10.20;68.00;;;;;;5000764;28;19917;-76
2023/04/29 04:15:08;;;;;;;;;;;10.20;68.00;;;;;;5013538;28;19940;-76
2023/04/29 04:17:33;;;;;;;;;;;10.20;68.00;;;;;;5019222;28;19948;-75
2023/04/29 04:19:59;;;;;;;;;;;10.20;68.00;;;;;;5027493;28;19922;-75
2023/04/29 04:22:24;;;;;;;;;;;10.20;68.00;;;;;;5014161;28;19921;-76
2023/04/29 04:24:50;;;;;;;;;;;10.20;68.00;;;;;;5012924;28;20360;-75
2023/04/29 04:27:15;;;;;;;;;;;10.20;68.00;;;;;;4997581;28;21191;-75
2023/04/29 04:29:41;;;;;;;;;;;10.20;68.00;;;;;;5014208;28;19925;-76
2023/04/29 04:32:06;;;;;;;;;;;10.20;68.00;;;;;;5010857;28;19975;-76
2023/04/29 04:34:32;;;;;;;;;;;10.20;68.00;;;;;;5011580;28;21911;-75
2023/04/29 04:36:57;;;;;;;;;;;10.20;68.00;;;;;;5026973;28;19917;-75
2023/04/29 04:39:23;;;;;;;;;;;10.20;68.00;;;;;;5013240;28;19921;-76
2023/04/29 04:41:48;;;;;;;;;;;10.20;68.00;;;;;;5028479;28;20007;-76
2023/04/29 04:44:13;;;;;;;;;;;10.30;68.10;;;;;;4988683;28;19921;-75
2023/04/29 04:46:39;;;;;;;;;;;10.30;68.10;;;;;;5004376;28;20087;-76
2023/04/29 04:49:04;;;;;;;;;;;10.30;68.00;;;;;;5014184;28;19921;-75
2023/04/29 04:51:30;;;;;;;;;;;10.30;68.00;;;;;;5014361;28;19921;-77
2023/04/29 04:53:55;;;;;;;;;;;10.30;68.00;;;;;;5013778;28;20414;-76
2023/04/29 04:56:21;;;;;;;;;;;10.40;68.00;;;;;;5026404;28;20314;-76
2023/04/29 04:58:46;;;;;;;;;;;10.40;68.00;;;;;;5029580;28;19959;-75
2023/04/29 05:01:12;;;;;;;;;;;10.40;68.00;;;;;;5014695;28;20443;-76
2023/04/29 05:03:37;;;;;;;;;;;10.40;68.00;;;;;;5010339;28;20028;-75
2023/04/29 05:06:03;;;;;;;;;;;10.40;68.00;;;;;;5012005;28;19925;-75
2023/04/29 05:08:28;;;;;;;;;;;10.40;68.00;;;;;;5010360;28;19944;-76
2023/04/29 05:10:54;;;;;;;;;;;10.40;68.80;;;;;;5011605;28;19933;-76
2023/04/29 05:13:19;;;;;;;;;;;10.50;68.00;;;;;;5028130;28;19943;-76
2023/04/29 05:15:45;;;;;;;;;;;10.50;68.00;;;;;;5008245;28;20328;-75
2023/04/29 05:18:10;;;;;;;;;;;10.50;68.00;;;;;;5012416;28;19988;-75
2023/04/29 05:20:36;;;;;;;;;;;10.50;68.00;;;;;;5026891;28;19918;-76
2023/04/29 05:23:02;;;;;;;;;;;10.60;68.00;;;;;;5009892;28;19917;-75
2023/04/29 05:25:27;;;;;;;;;;;10.60;68.10;;;;;;5008252;28;19921;-75
2023/04/29 05:27:53;;;;;;;;;;;10.70;68.00;;;;;;5008342;28;19922;-76
2023/04/29 05:30:18;;;;;;;;;;;10.60;68.00;;;;;;5011213;28;20000;-75
2023/04/29 05:32:47;;;;;;;;;;;10.70;68.00;;;;;;5009774;28;20490;-75
2023/04/29 05:35:13;;;;;;;;;;;10.80;68.00;;;;;;5022544;28;19932;-75
2023/04/29 05:37:38;;;;;;;;;;;10.80;68.00;;;;;;5013123;28;19922;-75
2023/04/29 05:40:04;;;;;;;;;;;10.80;68.00;;;;;;5011904;28;20537;-75
2023/04/29 05:42:30;;;;;;;;;;;10.90;68.00;;;;;;5026645;28;19921;-76
2023/04/29 05:44:55;;;;;;;;;;;10.90;67.90;;;;;;5014199;28;20631;-75
2023/04/29 05:47:21;;;;;;;;;;;10.90;67.90;;;;;;5010883;28;19972;-76
2023/04/29 05:49:46;;;;;;;;;;;11.00;67.90;;;;;;5012972;28;20466;-75
2023/04/29 05:52:12;;;;;;;;;;;11.00;67.80;;;;;;5009061;28;19984;-76
2023/04/29 05:54:37;;;;;;;;;;;11.10;67.90;;;;;;5014562;28;20425;-76
2023/04/29 05:57:03;;;;;;;;;;;11.10;67.80;;;;;;5009751;28;20016;-75
2023/04/29 05:59:31;;;;;;;;;;;11.20;67.90;;;;;;5011868;28;20473;-75
2023/04/29 06:01:57;;;;;;;;;;;11.30;67.90;;;;;;5010827;28;19927;-75
2023/04/29 06:04:25;;;;;;;;;;;11.30;67.80;;;;;;5010654;28;19921;-75
2023/04/29 06:06:51;;;;;;;;;;;11.40;67.80;;;;;;5008670;28;19959;-75
2023/04/29 06:09:17;;;;;;;;;;;11.40;67.80;;;;;;4995822;28;20000;-75
2023/04/29 06:11:43;;;;;;;;;;;11.50;67.80;;;;;;5010719;28;19987;-75
2023/04/29 06:14:09;;;;;;;;;;;11.60;67.80;;;;;;5013523;28;19932;-75
2023/04/29 06:16:35;;;;;;;;;;;11.60;67.70;;;;;;5008623;28;19925;-75
2023/04/29 06:19:00;;;;;;;;;;;11.70;67.70;;;;;;5027945;28;19920;-75
2023/04/29 06:21:27;;;;;;;;;;;11.70;67.60;;;;;;5013351;28;19978;-75
2023/04/29 06:23:52;;;;;;;;;;;11.70;67.60;;;;;;4998761;28;19921;-75
2023/04/29 06:26:19;;;;;;;;;;;11.80;67.60;;;;;;5026507;28;19960;-75
2023/04/29 06:28:45;;;;;;;;;;;11.90;67.60;;;;;;5010904;28;19936;-75
2023/04/29 06:31:11;;;;;;;;;;;11.90;67.60;;;;;;5011748;28;19921;-75
2023/04/29 06:33:36;;;;;;;;;;;11.90;67.50;;;;;;5006691;28;19928;-75
2023/04/29 06:36:03;;;;;;;;;;;12.00;67.60;;;;;;5027419;28;20430;-76
2023/04/29 06:38:28;;;;;;;;;;;12.00;67.50;;;;;;5012236;28;20586;-75
2023/04/29 06:41:02;;;;;;;;;;;12.10;67.50;;;;;;5009985;27;19928;-76
2023/04/29 06:43:27;;;;;;;;;;;12.10;67.40;;;;;;5023234;28;19917;-76
2023/04/29 06:45:53;;;;;;;;;;;12.20;67.50;;;;;;5027673;28;20287;-76
2023/04/29 06:48:18;;;;;;;;;;;12.30;67.50;;;;;;5036899;28;19921;-76
2023/04/29 06:50:49;;;;;;;;;;;12.30;67.40;;;;;;4997895;28;19928;-75
2023/04/29 06:53:15;;;;;;;;;;;12.40;67.40;;;;;;5016336;28;20759;-76
2023/04/29 06:55:40;;;;;;;;;;;12.50;67.40;;;;;;5021382;28;19978;-76
2023/04/29 06:58:06;;;;;;;;;;;12.60;67.40;;;;;;5027769;28;19932;-76
2023/04/29 07:00:32;;;;;;;;;;;12.70;67.30;;;;;;5021603;28;20169;-76
2023/04/29 07:02:57;;;;;;;;;;;12.90;67.20;;;;;;5029951;28;20001;-76
2023/04/29 07:05:23;;;;;;;;;;;13.00;67.10;;;;;;5027201;28;20011;-76
2023/04/29 07:07:48;;;;;;;;;;;13.10;66.90;;;;;;5026094;28;19921;-76
2023/04/29 07:10:14;;;;;;;;;;;13.30;66.80;;;;;;5019389;28;19931;-77
2023/04/29 07:12:39;;;;;;;;;;;13.40;66.70;;;;;;5020835;28;19952;-76
2023/04/29 07:15:05;;;;;;;;;;;13.50;66.60;;;;;;5022467;28;20390;-76
2023/04/29 07:17:31;;;;;;;;;;;13.70;66.50;;;;;;5007788;28;19921;-76
2023/04/29 07:19:56;;;;;;;;;;;13.80;66.40;;;;;;5004817;28;19929;-76
2023/04/29 07:22:22;;;;;;;;;;;14.00;66.20;;;;;;5025338;28;19921;-76
2023/04/29 07:24:47;;;;;;;;;;;14.10;66.10;;;;;;5024284;28;19976;-76
2023/04/29 07:27:12;;;;;;;;;;;14.20;66.00;;;;;;5032154;28;20311;-76
2023/04/29 07:29:39;;;;;;;;;;;14.40;66.00;;;;;;5024301;28;19925;-76
2023/04/29 07:32:04;;;;;;;;;;;14.50;65.80;;;;;;5030312;28;19978;-76
2023/04/29 07:34:30;;;;;;;;;;;14.60;65.60;;;;;;5022409;28;19925;-76
2023/04/29 07:36:56;;;;;;;;;;;14.70;65.60;;;;;;5023113;28;19925;-77
2023/04/29 07:39:21;;;;;;;;;;;14.80;65.50;;;;;;5032056;28;19958;-76
2023/04/29 07:41:47;;;;;;;;;;;14.90;65.50;;;;;;5041644;28;19939;-76
2023/04/29 07:44:12;;;;;;;;;;;15.00;65.30;;;;;;5042474;28;20008;-76
2023/04/29 07:46:38;;;;;;;;;;;15.10;65.20;;;;;;5029784;28;19921;-76
2023/04/29 07:49:05;;;;;;;;;;;15.20;65.20;;;;;;5024329;28;19924;-76
2023/04/29 07:51:31;;;;;;;;;;;15.30;65.10;;;;;;5029756;28;19921;-76
2023/04/29 07:53:57;;;;;;;;;;;15.30;65.00;;;;;;5029614;28;19929;-76
2023/04/29 07:56:22;;;;;;;;;;;15.40;65.00;;;;;;5030094;28;20393;-76
2023/04/29 07:58:48;;;;;;;;;;;15.60;65.00;;;;;;5034007;28;19932;-76
2023/04/29 08:01:14;;;;;;;;;;;15.60;64.80;;;;;;5030567;28;19928;-76
2023/04/29 08:03:40;;;;;;;;;;;15.70;64.70;;;;;;5019990;28;19932;-76
2023/04/29 08:06:06;;;;;;;;;;;15.90;64.60;;;;;;5013505;28;19921;-76
2023/04/29 08:08:31;;;;;;;;;;;16.00;64.40;;;;;;5030201;28;20624;-77
2023/04/29 08:10:57;;;;;;;;;;;16.20;64.40;;;;;;5020965;28;19931;-76
2023/04/29 08:13:22;;;;;;;;;;;16.40;64.30;;;;;;5027887;28;20176;-76
2023/04/29 08:15:48;;;;;;;;;;;16.60;64.10;;;;;;5016335;28;19952;-75
2023/04/29 08:18:13;;;;;;;;;;;16.80;63.90;;;;;;5009397;28;20488;-74
2023/04/29 08:20:38;;;;;;;;;;;16.90;63.60;;;;;;5004772;28;20312;-76
2023/04/29 08:23:04;;;;;;;;;;;17.00;63.50;;;;;;5009181;28;20052;-76
2023/04/29 08:25:29;;;;;;;;;;;17.10;63.40;;;;;;5023831;28;19936;-76
2023/04/29 08:27:55;;;;;;;;;;;17.10;63.40;;;;;;5021804;28;19917;-76
2023/04/29 08:30:21;;;;;;;;;;;17.10;63.20;;;;;;5032932;28;20031;-76
2023/04/29 08:32:46;;;;;;;;;;;17.20;63.30;;;;;;5032144;28;19932;-76
2023/04/29 08:35:12;;;;;;;;;;;17.10;63.30;;;;;;5031734;28;20429;-76
2023/04/29 08:37:37;;;;;;;;;;;17.10;63.30;;;;;;5020823;28;19963;-75
2023/04/29 08:40:03;;;;;;;;;;;17.20;63.30;;;;;;5032900;28;19979;-76
2023/04/29 08:42:33;;;;;;;;;;;17.20;63.40;;;;;;5034900;28;19928;-76
2023/04/29 08:44:58;;;;;;;;;;;17.30;63.40;;;;;;5017479;28;19936;-76
2023/04/29 08:47:24;;;;;;;;;;;17.30;63.30;;;;;;5015161;28;19920;-76
2023/04/29 08:49:50;;;;;;;;;;;17.30;64.10;;;;;;5014284;28;19925;-75
2023/04/29 08:52:15;;;;;;;;;;;17.30;63.30;;;;;;5003577;28;19921;-75
2023/04/29 08:54:41;;;;;;;;;;;17.40;63.30;;;;;;5001904;28;19921;-76
2023/04/29 08:57:06;;;;;;;;;;;17.40;63.30;;;;;;5002591;28;20049;-76
2023/04/29 08:59:32;;;;;;;;;;;17.40;63.20;;;;;;5041317;28;19929;-75
2023/04/29 09:01:57;;;;;;;;;;;17.40;63.20;;;;;;5028477;28;19982;-76
2023/04/29 09:04:28;;;;;;;;;;;17.40;63.20;;;;;;5029566;28;20367;-76
2023/04/29 09:06:55;;;;;;;;;;;17.40;63.20;;;;;;5027901;28;19933;-76
2023/04/29 09:09:20;;;;;;;;;;;17.40;63.20;;;;;;5021902;28;19921;-75
2023/04/29 09:11:46;;;;;;;;;;;17.40;63.20;;;;;;5007296;28;19953;-76
2023/04/29 09:14:11;;;;;;;;;;;17.40;63.20;;;;;;5018987;28;20441;-76
2023/04/29 09:16:37;;;;;;;;;;;17.40;64.10;;;;;;5029499;28;20651;-76
2023/04/29 09:19:03;;;;;;;;;;;17.30;63.10;;;;;;5030489;28;19928;-76
2023/04/29 09:21:31;;;;;;;;;;;17.30;63.20;;;;;;5039512;28;19921;-76
2023/04/29 09:23:57;;;;;;;;;;;17.30;63.20;;;;;;5030794;28;20359;-76
2023/04/29 09:26:23;;;;;;;;;;;17.30;63.20;;;;;;5029633;28;19921;-76
2023/04/29 09:29:10;;;;;;;;;;;17.30;63.20;;;;;;5027331;28;20342;-76
2023/04/29 09:31:39;;;;;;;;;;;17.30;63.20;;;;;;5024165;28;19920;-76
2023/04/29 09:34:04;;;;;;;;;;;17.30;63.30;;;;;;5029249;28;19926;-76
2023/04/29 09:36:36;;;;;;;;;;;17.30;63.30;;;;;;5017991;28;19932;-76
2023/04/29 09:39:04;;;;;;;;;;;17.30;63.20;;;;;;5026456;28;19995;-76
2023/04/29 09:41:30;;;;;;;;;;;17.20;63.30;;;;;;5007547;28;20413;-76
2023/04/29 09:44:08;;;;;;;;;;;17.20;63.20;;;;;;5007715;28;19917;-76
2023/04/29 09:46:33;;;;;;;;;;;17.20;63.30;;;;;;5028591;28;19917;-76
2023/04/29 09:49:03;;;;;;;;;;;17.10;63.20;;;;;;5030797;28;19927;-76
2023/04/29 09:51:31;;;;;;;;;;;17.20;63.30;;;;;;5029249;28;19956;-76
2023/04/29 09:53:57;;;;;;;;;;;17.20;63.30;;;;;;5027666;28;20009;-76
2023/04/29 09:56:23;;;;;;;;;;;17.10;63.20;;;;;;5033044;28;19928;-76
2023/04/29 09:58:48;;;;;;;;;;;17.10;63.20;;;;;;5023343;28;19920;-76
2023/04/29 10:01:18;;;;;;;;;;;17.10;63.30;;;;;;5029243;28;20439;-76
2023/04/29 10:03:43;;;;;;;;;;;17.10;63.20;;;;;;5027266;28;19921;-76
2023/04/29 10:06:09;;;;;;;;;;;17.10;63.30;;;;;;5016350;28;19932;-76
2023/04/29 10:08:34;;;;;;;;;;;17.10;63.30;;;;;;5030135;28;20632;-75
2023/04/29 10:11:00;;;;;;;;;;;17.10;63.40;;;;;;5029415;28;19920;-76
2023/04/29 10:13:27;;;;;;;;;;;17.10;63.30;;;;;;5029359;28;20407;-76
2023/04/29 10:16:01;;;;;;;;;;;17.10;63.20;;;;;;5015536;28;19979;-76
2023/04/29 10:18:29;;;;;;;;;;;17.20;63.20;;;;;;5029042;28;19921;-75
2023/04/29 10:20:55;;;;;;;;;;;17.30;63.20;;;;;;5012850;28;19925;-77
2023/04/29 10:23:21;;;;;;;;;;;17.30;63.20;;;;;;5022700;28;19956;-76
2023/04/29 10:25:46;;;;;;;;;;;17.30;63.10;;;;;;5043949;28;20008;-76
2023/04/29 10:28:14;;;;;;;;;;;17.30;63.10;;;;;;5028372;28;19931;-76
2023/04/29 10:30:40;;;;;;;;;;;17.30;63.00;;;;;;5016803;28;19921;-76
2023/04/29 10:33:05;;;;;;;;;;;17.40;63.00;;;;;;5025496;28;19956;-76
2023/04/29 10:35:31;;;;;;;;;;;17.40;63.00;;;;;;5020623;28;20287;-76
2023/04/29 10:37:56;;;;;;;;;;;17.50;62.90;;;;;;5028746;28;19921;-76
2023/04/29 10:40:35;;;;;;;;;;;17.50;62.90;;;;;;5010895;28;20012;-76
2023/04/29 10:43:01;;;;;;;;;;;17.60;62.90;;;;;;4993348;28;19921;-76
2023/04/29 10:45:34;;;;;;;;;;;17.60;62.80;;;;;;5008923;28;19991;-76
2023/04/29 10:48:09;;;;;;;;;;;17.70;62.70;;;;;;4991064;28;20673;-76
2023/04/29 10:50:47;;;;;;;;;;;17.80;62.60;;;;;;5022713;28;19928;-76
2023/04/29 10:53:15;;;;;;;;;;;17.80;63.30;;;;;;5023796;28;20423;-75
2023/04/29 10:55:41;;;;;;;;;;;17.90;62.40;;;;;;5024811;28;20512;-76
2023/04/29 10:58:25;;;;;;;;;;;17.90;62.40;;;;;;5004142;28;19925;-76
2023/04/29 11:00:50;;;;;;;;;;;18.00;62.40;;;;;;5005343;28;19976;-76
2023/04/29 11:03:17;;;;;;;;;;;17.90;62.30;;;;;;5023317;28;20007;-76
2023/04/29 11:05:42;;;;;;;;;;;17.90;62.40;;;;;;5005950;28;19962;-77
2023/04/29 11:08:09;;;;;;;;;;;17.80;62.20;;;;;;5015639;28;21824;-76
2023/04/29 11:10:35;;;;;;;;;;;17.70;62.30;;;;;;5027385;28;19921;-76
2023/04/29 11:13:19;;;;;;;;;;;17.70;62.40;;;;;;5017518;28;19921;-76
2023/04/29 11:15:44;;;;;;;;;;;17.60;62.60;;;;;;5028671;28;19944;-76
2023/04/29 11:18:10;;;;;;;;;;;17.50;62.60;;;;;;5015391;28;20646;-77
2023/04/29 11:20:55;;;;;;;;;;;17.50;62.60;;;;;;5026307;28;19931;-76
2023/04/29 11:23:23;;;;;;;;;;;17.50;62.70;;;;;;5026047;28;19921;-76
2023/04/29 11:25:48;;;;;;;;;;;17.50;62.70;;;;;;5028685;28;19928;-76
2023/04/29 11:28:14;;;;;;;;;;;17.50;62.80;;;;;;5029347;28;19925;-77
2023/04/29 11:30:40;;;;;;;;;;;17.50;62.70;;;;;;5028044;28;19921;-76
2023/04/29 11:33:07;;;;;;;;;;;17.40;62.70;;;;;;5027268;28;19921;-76
2023/04/29 11:35:32;;;;;;;;;;;17.40;62.70;;;;;;5025242;28;19928;-76
2023/04/29 11:37:58;;;;;;;;;;;17.40;62.80;;;;;;5028695;28;20452;-76
2023/04/29 11:40:23;;;;;;;;;;;17.50;62.80;;;;;;5023908;28;19933;-76
2023/04/29 11:42:49;;;;;;;;;;;17.50;62.70;;;;;;5007707;28;20007;-76
2023/04/29 11:45:17;;;;;;;;;;;17.60;62.80;;;;;;5023616;28;20702;-76
2023/04/29 11:47:44;;;;;;;;;;;17.60;62.60;;;;;;5025244;28;19932;-76
2023/04/29 11:50:10;;;;;;;;;;;17.60;62.60;;;;;;5029755;28;20427;-76
2023/04/29 11:52:36;;;;;;;;;;;17.70;62.50;;;;;;5028943;28;19943;-76
2023/04/29 11:55:02;;;;;;;;;;;17.80;62.50;;;;;;5022104;28;19928;-76
2023/04/29 11:57:27;;;;;;;;;;;17.80;62.40;;;;;;5023345;28;20699;-76
2023/04/29 11:59:54;;;;;;;;;;;17.90;62.30;;;;;;5019924;28;19924;-76
2023/04/29 12:02:27;;;;;;;;;;;18.00;62.30;;;;;;5011779;28;19928;-77
2023/04/29 12:04:53;;;;;;;;;;;18.00;62.20;;;;;;5009254;28;19928;-76
2023/04/29 12:07:18;;;;;;;;;;;18.00;62.10;;;;;;5012907;28;19921;-76
2023/04/29 12:09:44;;;;;;;;;;;18.00;62.10;;;;;;5009178;28;19936;-76
2023/04/29 12:12:10;;;;;;;;;;;18.10;62.20;;;;;;5021376;28;19971;-76
2023/04/29 12:14:35;;;;;;;;;;;18.10;62.10;;;;;;5007761;28;19920;-76
2023/04/29 12:17:01;;;;;;;;;;;18.10;62.10;;;;;;5009660;28;20357;-76
2023/04/29 12:19:27;;;;;;;;;;;18.10;62.00;;;;;;5013376;28;19921;-75
2023/04/29 12:21:52;;;;;;;;;;;18.10;62.00;;;;;;5007817;28;19969;-76
2023/04/29 12:24:19;;;;;;;;;;;18.00;62.00;;;;;;5007970;28;19917;-76
2023/04/29 12:26:45;;;;;;;;;;;18.00;62.10;;;;;;5011061;28;19921;-75
2023/04/29 12:29:11;;;;;;;;;;;18.00;62.10;;;;;;5009934;28;20000;-76
2023/04/29 12:31:37;;;;;;;;;;;18.00;62.10;;;;;;5014049;28;19928;-76
2023/04/29 12:34:03;;;;;;;;;;;17.90;62.10;;;;;;5007871;28;19921;-76
2023/04/29 12:36:29;;;;;;;;;;;17.90;62.20;;;;;;5008010;28;19955;-76
2023/04/29 12:38:54;;;;;;;;;;;17.90;63.00;;;;;;5019331;28;19958;-76
2023/04/29 12:41:34;;;;;;;;;;;17.80;62.20;;;;;;5016284;28;19928;-76
2023/04/29 12:43:59;;;;;;;;;;;17.80;62.20;;;;;;5028760;28;19925;-76
2023/04/29 12:46:25;;;;;;;;;;;17.90;62.20;;;;;;5028404;28;20391;-76
2023/04/29 12:48:50;;;;;;;;;;;17.90;62.20;;;;;;5027069;28;19925;-75
2023/04/29 12:51:16;;;;;;;;;;;17.80;62.10;;;;;;5029990;28;19920;-75
2023/04/29 12:53:42;;;;;;;;;;;17.90;62.20;;;;;;5009087;28;19921;-75
2023/04/29 12:56:07;;;;;;;;;;;17.90;62.20;;;;;;5008162;28;19974;-74
2023/04/29 12:58:33;;;;;;;;;;;17.80;62.20;;;;;;5004451;28;19981;-75
2023/04/29 13:00:59;;;;;;;;;;;17.80;62.20;;;;;;5043505;28;20601;-76
2023/04/29 13:03:24;;;;;;;;;;;17.90;62.20;;;;;;5038712;28;19945;-76
2023/04/29 13:05:52;;;;;;;;;;;17.90;62.20;;;;;;5032459;28;19925;-76
2023/04/29 13:08:18;;;;;;;;;;;17.80;62.10;;;;;;5027416;28;19970;-76
2023/04/29 13:10:43;;;;;;;;;;;17.80;62.10;;;;;;5019359;28;19921;-76
2023/04/29 13:13:09;;;;;;;;;;;17.80;62.20;;;;;;5025668;28;19979;-76
2023/04/29 13:15:35;;;;;;;;;;;17.80;62.20;;;;;;5030527;28;19924;-75
2023/04/29 13:18:00;;;;;;;;;;;17.80;62.20;;;;;;5028833;28;21132;-76
2023/04/29 13:20:26;;;;;;;;;;;17.80;62.10;;;;;;5028914;28;19965;-76
2023/04/29 13:22:52;;;;;;;;;;;17.80;62.20;;;;;;5027871;28;19924;-76
2023/04/29 13:25:17;;;;;;;;;;;17.90;62.20;;;;;;5024769;28;20001;-76
2023/04/29 13:27:43;;;;;;;;;;;17.90;62.20;;;;;;5023024;28;19956;-76
2023/04/29 13:30:08;;;;;;;;;;;17.80;62.10;;;;;;5022588;28;20007;-76
2023/04/29 13:32:34;;;;;;;;;;;17.80;62.10;;;;;;4991442;28;19982;-76
2023/04/29 13:35:00;;;;;;;;;;;17.80;62.10;;;;;;5005289;28;19927;-76
2023/04/29 13:37:25;;;;;;;;;;;17.80;62.20;;;;;;5025216;28;20690;-76
2023/04/29 13:39:51;;;;;;;;;;;17.70;62.20;;;;;;5015253;28;20503;-76
2023/04/29 13:42:16;;;;;;;;;;;17.70;62.10;;;;;;5012475;28;20031;-76
2023/04/29 13:44:43;;;;;;;;;;;17.70;62.10;;;;;;5006711;28;19997;-76
2023/04/29 13:47:14;;;;;;;;;;;17.60;62.20;;;;;;5007181;28;19925;-76
2023/04/29 13:49:40;;;;;;;;;;;17.60;62.20;;;;;;5010581;28;20629;-76
2023/04/29 13:52:06;;;;;;;;;;;17.50;62.30;;;;;;5020123;28;19924;-76
2023/04/29 13:54:32;;;;;;;;;;;17.50;62.30;;;;;;5006412;28;19921;-76
2023/04/29 13:56:57;;;;;;;;;;;17.40;62.30;;;;;;5006373;28;20023;-76
2023/04/29 13:59:23;;;;;;;;;;;17.30;62.30;;;;;;4997730;28;19925;-76
2023/04/29 14:01:49;;;;;;;;;;;17.30;62.40;;;;;;5025553;28;19963;-76
2023/04/29 14:04:15;;;;;;;;;;;17.30;62.50;;;;;;5028131;28;20398;-76
2023/04/29 14:06:41;;;;;;;;;;;17.30;62.50;;;;;;5037758;28;19928;-75
2023/04/29 14:09:07;;;;;;;;;;;17.30;62.60;;;;;;5026145;28;19933;-77
2023/04/29 14:11:35;;;;;;;;;;;17.30;62.50;;;;;;5014317;28;19928;-76